ホワイトホース の空港の天気 - METARとTAF

ホワイトホース国際空港 ( CYXY / YXY ) - カナダ ユーコン準州ホワイトホース
飛行場実況気象(Metar)
観測時間01/19 03:00 PST (01/19 11:00 UTC)
風向・風速南 5m/s
視程10km以上
天気現象弱い雪 低い地吹雪
全天を覆う雲 雲底高度 640m
気温-15℃
湿度78%
気圧1009.3hPa
METARCYXY 191100Z 18009KT 15SM -SN DRSN OVC021 M15/M18 A2962 RMK SC8 SLP093
過去の天気等 Google飛行場航空写真 Wunderground天気予報

過去48時間のMETAR

飛行場予報(TAF)
発表時間: 1/18 21:38 PST (1/19 05:38 UTC)
予報対象時間: 18日22時 PST ~ 19日10時 PST
風向・風速南南東 5m/s 瞬間風速 10m/s
視程10km以上
少しの雲 雲底高度 610m
全天を覆う雲 雲底高度 910m
18日22時 PST ~ 19日10時 PST に一時的に
視程8050m
天気現象弱い雪
全天の8割程度の雲 雲底高度 610m
全天を覆う雲 雲底高度 910m
TAF CYXY 190538Z 1906/1918 16010G20KT P6SM FEW020 OVC030
TEMPO 1906/1918 5SM -SN BKN020 OVC030 RMK NXT FCST BY 191200Z